Time;durP1;ratioP1;P1;durP2;ratioP2;P2;SDS_P1;SDS_P2;PMS_P1;PMS_P2;Temp;Humidity;BMP_temperature;BMP_pressure;BME280_temperature;BME280_humidity;BME280_pressure;Samples;Min_cycle;Max_cycle;Signal;HPM_P1;HPM_P2
2023/01/18 10:12:51;;;;;;;37.47;35.27;;;1.80;99.90;;;;;;5125392;27;20587;-75
2023/01/18 10:15:20;;;;;;;33.97;32.00;;;2.40;99.90;;;;;;5125365;27;20452;-75
2023/01/18 10:17:49;;;;;;;34.07;32.17;;;2.40;99.90;;;;;;5125147;27;20446;-74
2023/01/18 10:20:20;;;;;;;35.40;33.10;;;2.40;99.90;;;;;;5124901;27;20935;-74
2023/01/18 10:22:51;;;;;;;36.23;33.97;;;2.50;99.90;;;;;;5125326;27;20448;-74
2023/01/18 10:25:25;;;;;;;34.10;32.10;;;2.50;99.90;;;;;;5125116;27;20468;-74
2023/01/18 10:28:24;;;;;;;35.63;33.50;;;2.50;99.90;;;;;;5124534;27;20451;-74
2023/01/18 10:31:00;;;;;;;35.77;33.60;;;2.50;99.90;;;;;;5124711;27;20484;-75
2023/01/18 10:33:31;;;;;;;34.43;32.40;;;2.70;99.90;;;;;;5124589;27;20448;-76
2023/01/18 10:36:02;;;;;;;35.90;33.77;;;2.90;99.90;;;;;;5124531;27;20477;-75
2023/01/18 10:38:30;;;;;;;35.50;33.20;;;2.90;99.90;;;;;;5125064;27;20444;-76
2023/01/18 10:40:59;;;;;;;37.60;35.03;;;3.00;99.90;;;;;;5124684;27;20448;-76
2023/01/18 10:43:29;;;;;;;35.00;32.90;;;3.00;99.90;;;;;;5124736;27;20452;-75
2023/01/18 10:45:56;;;;;;;35.73;33.43;;;2.90;99.90;;;;;;5124178;27;20445;-76
2023/01/18 10:48:29;;;;;;;35.17;32.63;;;2.70;99.90;;;;;;5124361;27;21189;-75
2023/01/18 10:50:58;;;;;;;36.10;33.33;;;2.50;99.90;;;;;;5124820;27;20484;-76
2023/01/18 10:53:30;;;;;;;38.60;36.00;;;2.60;99.90;;;;;;5124824;27;20456;-76
2023/01/18 10:56:01;;;;;;;37.63;35.37;;;2.70;99.90;;;;;;5124870;27;20943;-77
2023/01/18 10:58:32;;;;;;;36.83;34.40;;;2.80;99.90;;;;;;5124965;27;20923;-77
2023/01/18 11:01:02;;;;;;;38.07;35.43;;;2.80;99.90;;;;;;5124775;27;20780;-75
2023/01/18 11:03:32;;;;;;;39.03;36.20;;;2.90;99.90;;;;;;5124791;27;20449;-75
2023/01/18 11:06:05;;;;;;;40.17;36.70;;;2.80;99.90;;;;;;5124670;27;20503;-75
2023/01/18 11:08:34;;;;;;;36.73;34.53;;;2.90;99.90;;;;;;5124876;27;20954;-75
2023/01/18 11:11:03;;;;;;;37.67;35.37;;;2.90;99.90;;;;;;5124396;27;20492;-74
2023/01/18 11:13:41;;;;;;;36.17;34.07;;;2.90;99.90;;;;;;5112606;27;20453;-75
2023/01/18 11:16:12;;;;;;;36.30;34.00;;;2.90;99.90;;;;;;5110863;28;20488;-74
2023/01/18 11:18:58;;;;;;;38.17;35.70;;;2.90;99.90;;;;;;5110690;28;20937;-74
2023/01/18 11:21:25;;;;;;;39.33;36.53;;;2.90;99.90;;;;;;5111016;28;20565;-75
2023/01/18 11:23:54;;;;;;;38.70;36.17;;;3.00;99.90;;;;;;5110792;28;20452;-75
2023/01/18 11:26:22;;;;;;;37.83;35.30;;;3.10;99.90;;;;;;5110841;28;20453;-74
2023/01/18 11:28:58;;;;;;;38.43;35.20;;;3.10;99.90;;;;;;5110920;28;20457;-75
2023/01/18 11:31:26;;;;;;;36.70;34.30;;;3.20;99.90;;;;;;5110567;27;20480;-75
2023/01/18 11:33:55;;;;;;;36.07;33.90;;;3.30;99.90;;;;;;5110787;28;20453;-75
2023/01/18 11:36:34;;;;;;;38.37;35.80;;;3.40;99.90;;;;;;5110581;28;20798;-75
2023/01/18 11:39:19;;;;;;;34.33;31.93;;;3.30;99.90;;;;;;5110747;28;20541;-75
2023/01/18 11:41:47;;;;;;;37.43;35.20;;;3.30;99.90;;;;;;5110737;28;20433;-74
2023/01/18 11:44:21;;;;;;;38.43;36.33;;;3.30;99.90;;;;;;5110742;28;20847;-75
2023/01/18 11:46:51;;;;;;;35.80;33.70;;;3.20;99.90;;;;;;5110307;28;20502;-75
2023/01/18 11:49:29;;;;;;;34.97;32.93;;;3.10;99.90;;;;;;5110709;28;20502;-75
2023/01/18 11:52:00;;;;;;;35.13;32.97;;;3.00;99.90;;;;;;5109439;28;21223;-75
2023/01/18 11:54:34;;;;;;;34.67;32.57;;;2.90;99.90;;;;;;5109763;28;20499;-75
2023/01/18 11:57:02;;;;;;;34.43;32.17;;;2.90;99.90;;;;;;5110249;28;20449;-75
2023/01/18 11:59:33;;;;;;;35.10;32.93;;;2.80;99.90;;;;;;5109769;27;20442;-76
2023/01/18 12:02:26;;;;;;;34.13;32.13;;;2.90;99.90;;;;;;5110149;28;20441;-76
2023/01/18 12:05:19;;;;;;;32.60;30.60;;;2.80;99.90;;;;;;5109712;28;20457;-76
2023/01/18 12:07:56;;;;;;;35.80;33.37;;;2.70;99.90;;;;;;5109745;28;20461;-75
2023/01/18 12:10:25;;;;;;;30.20;28.40;;;2.80;99.90;;;;;;5109419;27;20468;-76
2023/01/18 12:13:15;;;;;;;30.37;28.50;;;2.70;99.90;;;;;;5109068;28;20477;-75
2023/01/18 12:16:00;;;;;;;30.07;28.37;;;2.70;99.90;;;;;;5109273;28;20456;-75
2023/01/18 12:18:47;;;;;;;27.80;26.37;;;2.70;99.90;;;;;;5109326;28;20473;-75
2023/01/18 12:21:19;;;;;;;28.43;26.50;;;2.70;99.90;;;;;;5108959;28;20445;-75
2023/01/18 12:24:03;;;;;;;27.43;26.13;;;2.70;99.90;;;;;;5108061;27;21065;-75
2023/01/18 12:26:49;;;;;;;28.10;26.50;;;2.80;99.90;;;;;;5109544;28;20944;-74
2023/01/18 12:29:35;;;;;;;25.00;23.50;;;2.80;99.90;;;;;;5109443;28;20793;-75
2023/01/18 12:32:16;;;;;;;25.13;23.20;;;2.90;99.90;;;;;;5109463;28;20503;-75
2023/01/18 12:34:53;;;;;;;23.20;21.80;;;2.90;99.90;;;;;;5109435;28;20804;-73
2023/01/18 12:37:35;;;;;;;22.30;20.80;;;3.00;99.90;;;;;;5109061;28;20888;-74
2023/01/18 12:40:23;;;;;;;22.20;20.60;;;3.10;99.90;;;;;;5109380;28;20446;-73
2023/01/18 12:43:02;;;;;;;20.13;18.73;;;3.10;99.90;;;;;;5108916;28;20442;-73
2023/01/18 12:45:36;;;;;;;22.10;20.50;;;3.10;99.90;;;;;;5108676;28;20521;-73
2023/01/18 12:48:14;;;;;;;19.80;18.33;;;3.20;99.90;;;;;;5108793;28;20494;-73
2023/01/18 12:50:44;;;;;;;19.20;17.70;;;3.20;99.90;;;;;;5108295;27;20457;-75
2023/01/18 12:53:15;;;;;;;20.23;18.40;;;3.40;99.90;;;;;;5108519;28;20463;-74
2023/01/18 12:55:47;;;;;;;20.63;19.13;;;3.50;99.90;;;;;;5108502;28;20477;-73
2023/01/18 12:58:18;;;;;;;20.37;18.97;;;3.70;99.90;;;;;;5108584;28;20453;-73
2023/01/18 13:00:50;;;;;;;18.33;16.77;;;3.70;99.90;;;;;;5108726;28;20552;-73
2023/01/18 13:03:28;;;;;;;16.70;15.50;;;3.50;99.90;;;;;;5108853;28;20461;-73
2023/01/18 13:05:57;;;;;;;19.00;17.40;;;3.60;99.90;;;;;;5108093;27;20492;-73
2023/01/18 13:08:34;;;;;;;18.60;16.73;;;3.70;99.90;;;;;;5108129;28;20441;-73
2023/01/18 13:11:06;;;;;;;17.30;16.00;;;3.70;99.90;;;;;;5108048;28;20477;-74
2023/01/18 13:13:35;;;;;;;16.63;15.40;;;3.70;99.90;;;;;;5108193;28;20446;-73
2023/01/18 13:16:11;;;;;;;16.20;15.10;;;3.90;99.90;;;;;;5108925;28;20469;-73
2023/01/18 13:18:46;;;;;;;16.63;15.17;;;3.90;99.90;;;;;;5107555;28;20549;-73
2023/01/18 13:21:23;;;;;;;18.17;16.50;;;4.00;99.90;;;;;;5107228;28;20459;-73
2023/01/18 13:23:59;;;;;;;17.47;15.77;;;4.20;99.90;;;;;;5107320;28;20440;-73
2023/01/18 13:26:28;;;;;;;15.33;14.37;;;4.30;99.90;;;;;;5107722;28;20535;-74
2023/01/18 13:29:28;;;;;;;18.00;16.50;;;4.20;99.90;;;;;;5107274;28;20506;-73
2023/01/18 13:31:54;;;;;;;16.03;14.67;;;4.10;99.90;;;;;;5044187;28;20515;-73
2023/01/18 13:34:33;;;;;;;17.30;15.90;;;4.10;99.90;;;;;;5093002;28;20450;-74
2023/01/18 13:37:02;;;;;;;17.40;15.90;;;4.10;99.90;;;;;;5107215;28;20441;-74
2023/01/18 13:39:31;;;;;;;15.10;13.90;;;3.90;99.90;;;;;;5107043;28;20929;-74
2023/01/18 13:42:22;;;;;;;16.20;14.70;;;3.70;99.90;;;;;;5107351;28;20440;-74
2023/01/18 13:45:05;;;;;;;16.23;15.00;;;3.60;99.90;;;;;;5107061;28;20461;-74
2023/01/18 13:47:50;;;;;;;14.77;13.87;;;3.60;99.90;;;;;;5107815;28;20912;-74
2023/01/18 13:50:40;;;;;;;16.33;15.33;;;3.60;99.90;;;;;;5107709;28;20500;-75
2023/01/18 13:53:28;;;;;;;19.87;18.30;;;3.70;99.90;;;;;;5107582;28;20489;-75
2023/01/18 13:56:22;;;;;;;16.47;15.17;;;3.70;99.90;;;;;;5107223;28;20814;-75
2023/01/18 13:59:01;;;;;;;15.97;14.77;;;3.70;99.90;;;;;;5105614;28;20468;-75
2023/01/18 14:01:33;;;;;;;14.00;13.00;;;3.90;99.90;;;;;;5107954;28;20441;-75
2023/01/18 14:04:18;;;;;;;14.50;13.23;;;3.70;99.90;;;;;;5107732;28;20494;-75
2023/01/18 14:06:47;;;;;;;14.83;13.63;;;3.70;99.90;;;;;;5108097;28;20473;-76
2023/01/18 14:09:18;;;;;;;15.97;14.37;;;3.60;99.90;;;;;;5107677;28;20506;-75
2023/01/18 14:11:51;;;;;;;13.73;12.83;;;3.60;99.90;;;;;;5107919;28;20501;-74
2023/01/18 14:14:28;;;;;;;13.77;13.07;;;3.50;99.90;;;;;;5108049;28;20789;-75
2023/01/18 14:16:59;;;;;;;16.17;15.27;;;3.50;99.90;;;;;;5107536;28;20456;-75
2023/01/18 14:19:27;;;;;;;16.27;15.17;;;3.40;99.90;;;;;;5107555;28;20452;-75
2023/01/18 14:22:16;;;;;;;16.13;14.90;;;3.50;99.90;;;;;;5107837;28;20453;-75
2023/01/18 14:24:59;;;;;;;15.93;14.43;;;3.40;99.90;;;;;;5107655;28;20513;-76
2023/01/18 14:27:31;;;;;;;16.50;15.27;;;3.50;99.90;;;;;;5107426;28;20449;-76
2023/01/18 14:30:05;;;;;;;14.50;13.60;;;3.60;99.90;;;;;;5107587;28;20453;-76
2023/01/18 14:32:37;;;;;;;14.53;13.63;;;3.60;99.90;;;;;;5107374;28;20971;-74
2023/01/18 14:35:16;;;;;;;15.53;14.63;;;3.50;99.90;;;;;;5107623;28;21072;-75
2023/01/18 14:37:45;;;;;;;17.70;16.40;;;3.50;99.90;;;;;;5107526;28;20532;-75
2023/01/18 14:40:18;;;;;;;17.13;15.90;;;3.60;99.90;;;;;;5107570;28;20461;-75
2023/01/18 14:42:48;;;;;;;17.63;16.13;;;3.60;99.90;;;;;;5107658;28;20484;-75
2023/01/18 14:45:26;;;;;;;16.30;14.97;;;3.60;99.90;;;;;;5107565;28;20452;-75
2023/01/18 14:47:53;;;;;;;16.40;15.27;;;3.70;99.90;;;;;;5109043;28;20529;-75
2023/01/18 14:50:23;;;;;;;15.10;14.10;;;3.60;99.90;;;;;;5111261;28;20445;-74
2023/01/18 14:52:52;;;;;;;12.80;12.10;;;3.70;99.90;;;;;;5111643;28;20492;-75
2023/01/18 14:55:28;;;;;;;15.00;14.10;;;3.80;99.90;;;;;;5111922;28;20833;-74
2023/01/18 14:58:13;;;;;;;15.07;14.00;;;3.80;99.90;;;;;;5112191;28;20716;-74
2023/01/18 15:00:49;;;;;;;14.43;13.63;;;3.80;99.90;;;;;;5111886;28;20456;-74
2023/01/18 15:03:21;;;;;;;14.57;13.77;;;3.70;99.90;;;;;;5112150;28;20445;-74
2023/01/18 15:05:51;;;;;;;14.63;13.27;;;3.80;99.90;;;;;;5112671;28;20465;-73
2023/01/18 15:08:20;;;;;;;15.23;14.33;;;3.80;99.90;;;;;;5115337;28;20441;-75
2023/01/18 15:10:48;;;;;;;15.07;14.17;;;3.80;99.90;;;;;;5115664;28;20484;-76
2023/01/18 15:13:17;;;;;;;14.17;13.27;;;3.80;99.90;;;;;;5113413;28;20536;-74
2023/01/18 15:15:44;;;;;;;16.40;15.00;;;3.90;99.90;;;;;;5112213;27;20449;-73
2023/01/18 15:18:18;;;;;;;16.80;15.80;;;3.80;99.90;;;;;;5112141;28;20489;-74
2023/01/18 15:20:53;;;;;;;14.37;13.47;;;3.80;99.90;;;;;;5111483;28;20925;-74
2023/01/18 15:23:21;;;;;;;14.63;13.83;;;3.80;99.90;;;;;;5111532;28;20445;-74
2023/01/18 15:25:51;;;;;;;15.13;13.93;;;3.70;99.90;;;;;;5111262;28;20445;-74
2023/01/18 15:28:18;;;;;;;14.90;13.87;;;3.80;99.90;;;;;;5111580;28;20449;-75
2023/01/18 15:30:48;;;;;;;14.90;14.00;;;3.90;99.90;;;;;;5111578;28;20446;-74
2023/01/18 15:33:15;;;;;;;15.67;14.40;;;3.70;99.90;;;;;;5110942;28;20477;-74
2023/01/18 15:35:42;;;;;;;14.80;13.73;;;3.70;99.90;;;;;;5111057;28;20844;-74
2023/01/18 15:38:10;;;;;;;14.77;13.77;;;3.70;99.90;;;;;;5111030;28;20787;-74
2023/01/18 15:40:42;;;;;;;15.37;14.57;;;3.50;99.90;;;;;;5110811;28;20449;-75
2023/01/18 15:43:21;;;;;;;15.30;14.27;;;3.50;99.90;;;;;;5110912;28;20476;-75
2023/01/18 15:45:50;;;;;;;15.27;14.40;;;3.50;99.90;;;;;;5111083;28;20468;-75
2023/01/18 15:48:19;;;;;;;15.20;14.23;;;3.50;99.90;;;;;;5110935;28;20453;-74
2023/01/18 15:50:48;;;;;;;14.93;13.70;;;3.40;99.90;;;;;;5111075;28;20449;-74
2023/01/18 15:53:18;;;;;;;16.23;15.43;;;3.50;99.90;;;;;;5110846;28;20542;-75
2023/01/18 15:55:50;;;;;;;13.60;12.80;;;3.50;99.90;;;;;;5110795;28;20445;-74
2023/01/18 15:58:25;;;;;;;15.23;14.33;;;3.50;99.90;;;;;;5110923;28;20449;-75
2023/01/18 16:00:56;;;;;;;15.30;13.77;;;3.40;99.90;;;;;;5110652;28;20457;-75
2023/01/18 16:03:25;;;;;;;14.20;13.50;;;3.40;99.90;;;;;;5110465;27;20437;-74
2023/01/18 16:06:15;;;;;;;15.70;14.43;;;3.40;99.90;;;;;;5109983;28;20808;-74
2023/01/18 16:09:07;;;;;;;16.10;15.10;;;3.30;99.90;;;;;;5106224;28;20489;-75
2023/01/18 16:11:42;;;;;;;12.87;12.07;;;3.40;99.90;;;;;;5110706;28;20477;-75
2023/01/18 16:14:22;;;;;;;13.23;12.43;;;3.40;99.90;;;;;;5110502;27;20494;-75
2023/01/18 16:16:49;;;;;;;15.30;14.30;;;3.30;99.90;;;;;;5110565;28;20445;-75
2023/01/18 16:19:23;;;;;;;13.93;13.13;;;3.30;99.90;;;;;;5110423;28;20514;-74
2023/01/18 16:21:53;;;;;;;14.77;13.80;;;3.40;99.90;;;;;;5110746;28;20446;-75
2023/01/18 16:24:28;;;;;;;13.87;12.90;;;3.40;99.90;;;;;;5110395;28;20445;-74
2023/01/18 16:26:57;;;;;;;13.43;12.33;;;3.30;99.90;;;;;;5110005;28;20445;-75
2023/01/18 16:29:23;;;;;;;12.50;11.80;;;3.30;99.90;;;;;;5109722;28;20961;-75
2023/01/18 16:31:50;;;;;;;14.53;13.63;;;3.30;99.90;;;;;;5110114;28;20807;-74
2023/01/18 16:34:24;;;;;;;13.93;13.00;;;3.30;99.90;;;;;;5110316;28;20453;-74
2023/01/18 16:36:52;;;;;;;13.60;12.70;;;3.30;99.90;;;;;;5109993;28;20445;-74
2023/01/18 16:39:19;;;;;;;17.90;14.20;;;3.30;99.90;;;;;;5110195;28;20469;-75
2023/01/18 16:41:52;;;;;;;15.53;14.43;;;3.30;99.90;;;;;;5110327;28;20441;-74
2023/01/18 16:44:21;;;;;;;14.37;13.40;;;3.30;99.90;;;;;;5109964;27;20812;-75
2023/01/18 16:46:49;;;;;;;13.83;13.13;;;3.30;99.90;;;;;;5109962;28;20445;-75
2023/01/18 16:49:15;;;;;;;14.20;13.30;;;3.30;99.90;;;;;;5109574;28;20456;-74
2023/01/18 16:51:42;;;;;;;13.30;12.47;;;3.20;99.90;;;;;;5109720;28;20461;-74
2023/01/18 16:54:09;;;;;;;14.30;13.30;;;3.10;99.90;;;;;;5109364;28;20485;-74
2023/01/18 16:56:36;;;;;;;13.63;12.67;;;3.00;99.90;;;;;;5109170;28;21015;-74
2023/01/18 16:59:11;;;;;;;14.00;13.10;;;3.00;99.90;;;;;;5109919;28;20956;-74
2023/01/18 17:01:39;;;;;;;14.57;13.47;;;2.90;99.90;;;;;;5109350;28;20460;-75
2023/01/18 17:04:06;;;;;;;12.37;11.60;;;2.80;99.90;;;;;;5109385;28;20450;-74
2023/01/18 17:06:33;;;;;;;14.83;13.63;;;2.70;99.90;;;;;;5109563;28;20469;-75
2023/01/18 17:09:00;;;;;;;15.20;14.30;;;2.60;99.90;;;;;;5109970;28;20801;-74
2023/01/18 17:11:26;;;;;;;15.37;14.40;;;2.60;99.90;;;;;;5108749;28;20480;-74
2023/01/18 17:13:53;;;;;;;16.03;14.77;;;2.50;99.90;;;;;;5109340;28;20485;-75
2023/01/18 17:16:20;;;;;;;16.07;15.07;;;2.30;99.90;;;;;;5109264;28;20449;-75
2023/01/18 17:18:48;;;;;;;15.47;14.27;;;2.30;99.90;;;;;;5109305;28;20533;-75
2023/01/18 17:21:15;;;;;;;15.77;14.60;;;2.30;99.90;;;;;;5109472;28;20483;-74
2023/01/18 17:23:42;;;;;;;15.60;14.60;;;2.20;99.90;;;;;;5108884;28;20449;-74
2023/01/18 17:26:12;;;;;;;14.20;13.30;;;2.20;99.90;;;;;;5108881;28;20446;-75
2023/01/18 17:28:39;;;;;;;16.40;15.10;;;2.30;99.90;;;;;;5108683;28;21183;-75
2023/01/18 17:31:07;;;;;;;16.43;15.07;;;2.30;99.90;;;;;;5108580;28;20429;-75
2023/01/18 17:33:37;;;;;;;14.73;13.83;;;2.20;99.90;;;;;;5109004;28;20481;-75
2023/01/18 17:36:07;;;;;;;15.33;14.27;;;2.30;99.90;;;;;;5108835;28;20493;-75
2023/01/18 17:38:34;;;;;;;15.67;14.87;;;2.30;99.90;;;;;;5108851;28;20940;-75
2023/01/18 17:41:00;;;;;;;15.00;14.20;;;2.30;99.90;;;;;;5109252;28;20453;-75
2023/01/18 17:43:27;;;;;;;15.67;14.77;;;2.30;99.90;;;;;;5108816;28;20940;-75
2023/01/18 17:45:55;;;;;;;15.83;14.83;;;2.40;99.90;;;;;;5108642;28;20761;-76
2023/01/18 17:48:22;;;;;;;15.53;14.33;;;2.40;99.90;;;;;;5108906;28;20509;-76
2023/01/18 17:50:48;;;;;;;15.80;14.73;;;2.20;99.90;;;;;;5108802;28;20797;-76
2023/01/18 17:53:16;;;;;;;14.47;13.47;;;2.20;99.90;;;;;;5109305;28;20867;-75
2023/01/18 17:55:43;;;;;;;14.67;13.87;;;2.10;99.90;;;;;;5108724;28;20456;-76
2023/01/18 17:58:10;;;;;;;15.70;14.33;;;2.10;99.90;;;;;;5108884;28;20685;-74
